Prescott, MI

10:17 AM EDT on April 27, 2015 (GMT -0400)
MesoWest | | Change Station
CLOSE
Current Station
Personal Weather Station
Location: West Branch, MI
Elevation: 977 ft
Nearby Weather Stations

Elev 977 ft 44.25 °N, 84.23 °W | Updated 42 minutes ago

Overcast
Overcast
42 °F
Feels Like 36 °F
N
11
Wind Variable Wind from NNE
Gusts 22.0 mph

Today
High -- | Low -- °F
--% Chance of Precip.
Yesterday
High -- | Low -- °F
Precip. -- in
6:33 AM 8:34 PM
Waxing Gibbous, 65% visible
Pressure 30.01 in
Visibility 10.0 miles
Clouds Overcast 1900 ft
Windchill 36 °F
Dew Point 33 °F
Humidity 70%
Rainfall in
Snow Depth Not available.
UV 1 out of 12
Pollen 10.20 out of 12
Air Quality Not available.
Flu Activity Regional
METAR KOSC 271354Z AUTO 36012G17KT 10SM OVC019 06/01 A3001 RMK AO2 T00630016

More Conditions Fewer Conditions

Pressure 30.01 in
Visibility 10.0 miles
Clouds Overcast 1900 ft
Windchill 36 °F
Dew Point 33 °F
Humidity 70%
Rainfall in
Snow Depth Not available.
UV 1 out of 12
Pollen 10.20 out of 12
Air Quality Not available.
Flu Activity Regional
METAR KOSC 271354Z AUTO 36012G17KT 10SM OVC019 06/01 A3001 RMK AO2 T00630016

More Conditions Fewer Conditions

Nowcast | as of 10:00 am EDT on April 27, 2015

At 11 am...cloudy. Temperature 46. North winds 13 mph. At 1 PM...mostly cloudy. Temperature 50. North winds 13 mph. At 3 PM...mostly cloudy. Temperature 53. North winds 13 mph. At 5 PM...mostly cloudy. Temperature 55. North winds 13 mph.

×

10-Day Weather Forecast

Almanac

Astronomy

Apr. 27, 2015 Rise Set
Actual Time
Civil Twilight
Nautical Twilight
Astronomical Twilight
Moon
Length of Visible Light
Length of Day
Tomorrow will be .
, % of the Moon is Illuminated

Today's Extremes

State Highs State Lows

Community

WunderPhotos

Upload Photos

1,817,314 photos uploaded!

WunderBlogs® & News

Nearby

Air Quality

  Air Quality AQ Index Pollutant
Not available.

Snow Depth

Station Depth Elevation

Earthquake Activity

City Distance Mag. Time & Date
Minimum magnitude displayed is 2.5.

Coastal Water Temperatures

Place Temperature

Stations

Nearby Weather Stations

Station Location Temp. Windchill Dew Point Humidity Wind Precip. Elev Updated Type